EGEO/OBN METAR and TAF weather

Enter ICAO airport designator
Station Type Date Time Source
EGEO METAR 2019/04/24 15:20 UTC NOAA

EGEO 241520Z 12018KT CAVOK 17/07 Q0992


Station Type Date Time Source
EGEO Decoded METAR 2019/04/24 15:20 UTC NOAA

Station name not available
Apr 24, 2019 - 11:20 AM EDT / 2019.04.24 1520 UTC
Wind: from the ESE (120 degrees) at 21 MPH (18 KT):0
Visibility: greater than 7 mile(s):0
Temperature: 62 F (17 C)
Dew Point: 44 F (7 C)
Relative Humidity: 51%
Pressure (altimeter): 29.29 in. Hg (0992 hPa)
ob: EGEO 241520Z 12018KT CAVOK 17/07 Q0992
cycle: 15

Station Type Date Time Source
EGEO TAF UTC NOAA

Error!

Example: see airport list